Time;durP1;ratioP1;P1;durP2;ratioP2;P2;SDS_P1;SDS_P2;PMS_P1;PMS_P2;Temp;Humidity;BMP_temperature;BMP_pressure;BME280_temperature;BME280_humidity;BME280_pressure;Samples;Min_cycle;Max_cycle;Signal;HPM_P1;HPM_P2
2023/05/26 00:02:39;;;;;;;20.37;5.53;;;8.60;99.90;;;;;;7322694;32;20470;-55
2023/05/26 00:06:41;;;;;;;20.55;5.35;;;8.50;99.90;;;;;;7310458;32;20112;-55
2023/05/26 00:10:43;;;;;;;24.10;5.25;;;8.50;99.90;;;;;;7322740;32;20204;-55
2023/05/26 00:14:46;;;;;;;19.85;5.25;;;8.40;99.90;;;;;;7319228;32;20124;-55
2023/05/26 00:18:48;;;;;;;20.02;5.30;;;8.40;99.90;;;;;;7309247;32;20507;-54
2023/05/26 00:22:50;;;;;;;21.25;5.70;;;8.40;99.90;;;;;;7320583;32;20332;-55
2023/05/26 00:26:53;;;;;;;17.10;5.03;;;8.30;99.90;;;;;;7318428;32;20119;-55
2023/05/26 00:30:55;;;;;;;19.00;5.20;;;8.30;99.90;;;;;;7324224;32;20201;-55
2023/05/26 00:34:57;;;;;;;16.83;4.65;;;8.20;99.90;;;;;;7326821;32;20120;-55
2023/05/26 00:38:58;;;;;;;24.77;5.40;;;8.20;99.90;;;;;;7324407;32;20130;-55
2023/05/26 00:43:00;;;;;;;24.60;5.25;;;8.20;99.90;;;;;;7325384;32;20240;-53
2023/05/26 00:47:02;;;;;;;20.40;5.18;;;8.10;99.90;;;;;;7311815;32;20250;-54
2023/05/26 00:51:04;;;;;;;19.17;5.40;;;8.00;99.90;;;;;;7325898;32;20111;-54
2023/05/26 00:55:08;;;;;;;23.77;5.07;;;8.00;99.90;;;;;;7321428;32;20822;-54
2023/05/26 00:59:14;;;;;;;20.17;5.57;;;8.00;99.90;;;;;;7325678;32;20226;-54
2023/05/26 01:03:16;;;;;;;19.05;4.85;;;8.00;99.90;;;;;;7327139;32;20198;-53
2023/05/26 01:07:20;;;;;;;18.42;5.35;;;7.90;99.90;;;;;;7330084;32;20647;-54
2023/05/26 01:11:32;;;;;;;14.70;4.85;;;7.90;99.90;;;;;;7312433;32;20176;-53
2023/05/26 01:15:47;;;;;;;17.05;5.05;;;7.90;99.90;;;;;;7322011;32;20123;-54
2023/05/26 01:20:13;;;;;;;14.80;4.55;;;7.80;99.90;;;;;;7326689;32;20157;-53
2023/05/26 01:24:39;;;;;;;16.98;4.85;;;7.70;99.90;;;;;;7323804;32;20221;-53
2023/05/26 01:28:43;;;;;;;24.00;5.47;;;7.80;99.90;;;;;;7323498;32;20250;-53
2023/05/26 01:32:47;;;;;;;18.05;4.75;;;7.80;99.90;;;;;;7303357;32;20141;-53
2023/05/26 01:36:49;;;;;;;18.67;4.70;;;7.80;99.90;;;;;;7325708;32;20112;-53
2023/05/26 01:40:59;;;;;;;22.87;4.65;;;7.70;99.90;;;;;;7320935;32;20251;-53
2023/05/26 01:45:07;;;;;;;20.33;4.62;;;7.70;99.90;;;;;;7318831;32;20159;-53
2023/05/26 01:49:10;;;;;;;19.23;4.80;;;7.60;99.90;;;;;;7318829;32;20135;-53
2023/05/26 01:53:12;;;;;;;14.93;4.60;;;7.60;99.90;;;;;;7325004;32;20266;-53
2023/05/26 01:57:16;;;;;;;18.67;4.40;;;7.50;99.90;;;;;;7315628;32;20710;-53
2023/05/26 02:01:17;;;;;;;14.52;3.80;;;7.40;99.90;;;;;;7316980;32;20202;-53
2023/05/26 02:05:19;;;;;;;13.05;3.87;;;7.40;99.90;;;;;;7302496;32;20242;-53
2023/05/26 02:09:21;;;;;;;20.45;4.95;;;7.40;99.90;;;;;;7318131;32;20233;-53
2023/05/26 02:13:23;;;;;;;24.70;4.80;;;7.40;99.90;;;;;;7315213;32;20266;-53
2023/05/26 02:17:25;;;;;;;19.27;5.07;;;7.30;99.90;;;;;;7294953;32;20514;-53
2023/05/26 02:21:26;;;;;;;18.20;5.00;;;7.20;99.90;;;;;;7320066;32;20506;-53
2023/05/26 02:25:28;;;;;;;17.17;4.32;;;7.10;99.90;;;;;;7306639;32;20112;-53
2023/05/26 02:29:30;;;;;;;17.05;4.50;;;7.10;99.90;;;;;;7325361;32;20205;-53
2023/05/26 02:33:32;;;;;;;15.02;3.70;;;7.00;99.90;;;;;;7320610;32;20142;-53
2023/05/26 02:37:34;;;;;;;24.50;4.85;;;6.90;99.90;;;;;;7319440;32;20154;-54
2023/05/26 02:41:36;;;;;;;29.27;4.82;;;6.90;99.90;;;;;;7323925;32;20552;-53
2023/05/26 02:45:38;;;;;;;21.58;4.65;;;6.80;99.90;;;;;;7306279;32;20296;-53
2023/05/26 02:49:40;;;;;;;17.62;4.32;;;6.80;99.90;;;;;;7312749;32;20131;-53
2023/05/26 02:53:44;;;;;;;24.67;4.47;;;6.70;99.90;;;;;;7324043;32;20184;-53
2023/05/26 02:57:46;;;;;;;14.20;4.10;;;6.70;99.90;;;;;;7323551;32;20153;-54
2023/05/26 03:01:48;;;;;;;19.83;4.53;;;6.60;99.90;;;;;;7321131;32;20127;-54
2023/05/26 03:05:51;;;;;;;19.20;4.47;;;6.60;99.90;;;;;;7320572;32;20119;-54
2023/05/26 03:09:53;;;;;;;19.80;3.97;;;6.50;99.90;;;;;;7325294;32;20111;-54
2023/05/26 03:13:54;;;;;;;21.77;4.82;;;6.60;99.90;;;;;;7323880;32;20124;-54
2023/05/26 03:17:56;;;;;;;24.48;6.07;;;6.70;99.90;;;;;;7322172;32;20221;-54
2023/05/26 03:21:58;;;;;;;25.75;5.95;;;6.60;99.90;;;;;;7335854;32;20107;-53
2023/05/26 03:26:22;;;;;;;19.90;4.75;;;6.70;99.90;;;;;;7325908;32;20188;-54
2023/05/26 03:30:23;;;;;;;28.25;5.65;;;6.80;99.90;;;;;;7322875;32;20238;-54
2023/05/26 03:34:25;;;;;;;32.63;5.78;;;6.90;99.90;;;;;;7331061;32;20104;-54
2023/05/26 03:38:27;;;;;;;27.48;4.85;;;7.10;99.90;;;;;;7311205;32;20116;-54
2023/05/26 03:42:29;;;;;;;29.60;5.60;;;7.10;99.90;;;;;;7334011;32;20126;-54
2023/05/26 03:46:31;;;;;;;34.30;5.50;;;7.20;99.90;;;;;;7324306;32;20576;-54
2023/05/26 03:50:32;;;;;;;33.55;6.25;;;7.30;99.90;;;;;;7323660;32;20124;-54
2023/05/26 03:54:34;;;;;;;33.13;5.53;;;7.40;99.90;;;;;;7318939;32;20112;-54
2023/05/26 03:58:36;;;;;;;32.95;6.30;;;7.50;99.90;;;;;;7321401;32;20160;-54
2023/05/26 04:02:38;;;;;;;28.00;6.28;;;7.70;99.90;;;;;;7320549;32;20214;-54
2023/05/26 04:06:40;;;;;;;30.37;5.97;;;7.80;99.90;;;;;;7326645;32;20469;-53
2023/05/26 04:10:41;;;;;;;30.70;5.72;;;7.90;99.90;;;;;;7313114;32;20259;-53
2023/05/26 04:14:43;;;;;;;33.55;6.75;;;8.10;99.90;;;;;;7327077;32;20111;-54
2023/05/26 04:18:46;;;;;;;39.42;6.40;;;8.20;99.90;;;;;;7338839;32;20139;-54
2023/05/26 04:22:47;;;;;;;29.58;6.03;;;8.20;99.90;;;;;;7327635;32;20145;-54
2023/05/26 04:26:52;;;;;;;32.22;5.97;;;8.40;99.90;;;;;;7332186;32;20111;-54
2023/05/26 04:30:54;;;;;;;35.85;7.28;;;8.40;99.90;;;;;;7332419;32;20643;-53
2023/05/26 04:34:56;;;;;;;38.63;7.70;;;8.40;99.90;;;;;;7332273;32;20164;-53
2023/05/26 04:38:58;;;;;;;35.85;8.85;;;8.50;99.90;;;;;;7328024;32;20104;-53
2023/05/26 04:43:00;;;;;;;34.05;8.80;;;8.60;99.90;;;;;;7326481;32;20188;-53
2023/05/26 04:47:02;;;;;;;31.90;7.87;;;8.60;99.90;;;;;;7340741;32;20533;-54
2023/05/26 04:51:05;;;;;;;39.70;8.65;;;8.60;99.90;;;;;;7336556;32;20100;-56
2023/05/26 04:55:08;;;;;;;40.70;9.27;;;8.70;99.90;;;;;;7337333;32;20107;-54
2023/05/26 04:59:11;;;;;;;40.38;8.63;;;8.80;99.90;;;;;;7339162;32;20124;-54
2023/05/26 05:03:13;;;;;;;38.85;8.30;;;8.90;99.90;;;;;;7334812;32;20143;-54
2023/05/26 05:07:15;;;;;;;32.38;8.50;;;9.00;99.90;;;;;;7325033;32;20237;-55
2023/05/26 05:11:17;;;;;;;39.92;9.93;;;8.90;99.90;;;;;;7319456;32;20136;-55
2023/05/26 05:15:19;;;;;;;34.13;8.85;;;9.00;99.90;;;;;;7327723;32;20209;-54
2023/05/26 05:19:21;;;;;;;44.35;10.40;;;9.00;99.90;;;;;;7330414;32;20780;-55
2023/05/26 05:23:22;;;;;;;38.38;10.98;;;9.00;99.90;;;;;;7324065;32;21146;-55
2023/05/26 05:27:25;;;;;;;30.77;9.50;;;8.90;99.90;;;;;;7332971;32;23853;-56
2023/05/26 05:31:26;;;;;;;39.78;12.18;;;9.00;99.90;;;;;;7332262;32;20213;-54
2023/05/26 05:35:28;;;;;;;41.05;10.63;;;9.00;99.90;;;;;;7320534;32;20500;-55
2023/05/26 05:39:30;;;;;;;34.10;10.40;;;9.00;99.90;;;;;;7330041;32;20171;-54
2023/05/26 05:43:32;;;;;;;41.95;9.85;;;9.20;99.90;;;;;;7316371;32;20194;-54
2023/05/26 05:47:34;;;;;;;35.70;10.05;;;9.30;99.90;;;;;;7324424;32;20182;-55
2023/05/26 05:51:36;;;;;;;43.17;13.15;;;9.50;99.90;;;;;;7323106;32;20521;-54
2023/05/26 05:55:38;;;;;;;44.05;18.08;;;9.50;99.90;;;;;;7318724;32;20811;-55
2023/05/26 05:59:40;;;;;;;43.05;14.98;;;9.60;99.90;;;;;;7323590;32;20188;-55
2023/05/26 06:03:42;;;;;;;48.17;14.70;;;9.30;99.90;;;;;;7327188;32;20250;-54
2023/05/26 06:07:44;;;;;;;43.75;12.50;;;9.50;99.90;;;;;;7327770;32;20210;-54
2023/05/26 06:11:46;;;;;;;39.47;11.75;;;9.70;99.90;;;;;;7327738;32;20119;-55
2023/05/26 06:15:48;;;;;;;41.45;11.10;;;9.80;99.90;;;;;;7304952;32;20108;-55
2023/05/26 06:19:49;;;;;;;36.60;10.50;;;9.90;99.90;;;;;;7317555;32;20721;-54
2023/05/26 06:23:52;;;;;;;41.28;13.18;;;10.20;99.90;;;;;;7326409;32;20537;-54
2023/05/26 06:27:54;;;;;;;41.88;11.63;;;10.50;99.90;;;;;;7330113;32;20107;-54
2023/05/26 06:31:56;;;;;;;46.63;11.93;;;10.50;99.90;;;;;;7333111;32;20131;-55
2023/05/26 06:35:58;;;;;;;37.95;10.38;;;10.50;99.90;;;;;;7328879;32;20610;-56
2023/05/26 06:40:00;;;;;;;34.83;11.12;;;10.10;99.90;;;;;;7333254;32;20185;-57
2023/05/26 06:44:02;;;;;;;33.45;10.25;;;10.30;99.90;;;;;;7327376;32;20249;-56
2023/05/26 06:48:04;;;;;;;37.95;10.90;;;10.50;99.90;;;;;;7329342;32;20570;-56
2023/05/26 06:52:05;;;;;;;41.15;10.63;;;10.50;99.90;;;;;;7333940;32;20180;-57
2023/05/26 06:56:07;;;;;;;36.53;9.40;;;11.10;99.90;;;;;;7327106;32;20211;-57
2023/05/26 07:00:10;;;;;;;32.63;8.95;;;11.40;99.90;;;;;;7330974;32;20119;-57
2023/05/26 07:04:11;;;;;;;23.73;8.02;;;11.70;99.90;;;;;;7326301;32;20255;-57
2023/05/26 07:08:13;;;;;;;27.58;9.32;;;11.60;99.90;;;;;;7311819;32;20191;-55
2023/05/26 07:12:15;;;;;;;37.90;11.60;;;11.20;99.90;;;;;;7338463;32;20185;-54
2023/05/26 07:16:17;;;;;;;29.15;10.07;;;10.90;99.90;;;;;;7327889;32;20366;-55
2023/05/26 07:20:19;;;;;;;35.42;10.55;;;10.80;99.90;;;;;;7324359;32;20705;-55
2023/05/26 07:24:21;;;;;;;34.20;10.70;;;10.70;99.90;;;;;;7321354;32;20207;-55
2023/05/26 07:28:22;;;;;;;35.55;10.45;;;11.00;99.90;;;;;;7325451;32;20627;-54
2023/05/26 07:32:24;;;;;;;31.83;10.27;;;10.80;99.90;;;;;;7321324;32;20108;-55
2023/05/26 07:36:26;;;;;;;29.65;10.25;;;11.40;99.90;;;;;;7322318;32;20112;-56
2023/05/26 07:40:29;;;;;;;31.17;10.85;;;11.70;99.90;;;;;;7325988;32;20286;-55
2023/05/26 07:44:31;;;;;;;34.67;11.32;;;12.00;99.90;;;;;;7327515;32;21253;-55
2023/05/26 07:48:33;;;;;;;36.55;12.07;;;11.80;99.90;;;;;;7331513;32;20277;-55
2023/05/26 07:52:35;;;;;;;29.77;10.38;;;11.90;99.90;;;;;;7324646;32;20324;-55
2023/05/26 07:56:37;;;;;;;35.00;10.95;;;12.30;99.90;;;;;;7329858;32;20257;-55
2023/05/26 08:00:39;;;;;;;29.12;10.63;;;12.40;99.90;;;;;;7323283;32;20138;-55
2023/05/26 08:04:40;;;;;;;31.83;11.25;;;12.30;99.90;;;;;;7328057;32;20158;-59
2023/05/26 08:08:42;;;;;;;30.85;9.60;;;12.50;99.90;;;;;;7321467;32;20557;-55
2023/05/26 08:12:44;;;;;;;31.73;10.32;;;12.80;99.90;;;;;;7322017;32;20218;-55
2023/05/26 08:16:46;;;;;;;28.40;9.77;;;13.20;99.90;;;;;;7324629;32;20111;-55
2023/05/26 08:20:52;;;;;;;29.50;7.95;;;13.20;99.90;;;;;;7329368;32;20231;-57
2023/05/26 08:24:54;;;;;;;28.25;8.40;;;14.00;99.90;;;;;;7309818;32;20179;-54
2023/05/26 08:28:56;;;;;;;27.55;8.30;;;14.00;99.90;;;;;;7328282;32;20127;-55
2023/05/26 08:32:57;;;;;;;28.05;7.93;;;14.70;99.90;;;;;;7328716;32;20138;-54
2023/05/26 08:36:59;;;;;;;28.73;8.93;;;14.20;99.90;;;;;;7325241;32;20229;-55
2023/05/26 08:41:04;;;;;;;33.05;8.25;;;14.50;99.90;;;;;;7323612;32;20356;-54
2023/05/26 08:45:07;;;;;;;28.50;7.22;;;14.40;99.90;;;;;;7322902;32;20150;-54
2023/05/26 08:49:11;;;;;;;26.23;7.47;;;14.90;99.90;;;;;;7325726;32;20111;-55
2023/05/26 08:53:13;;;;;;;24.15;7.05;;;16.00;99.90;;;;;;7319292;32;20537;-55
2023/05/26 08:57:20;;;;;;;28.80;7.62;;;15.10;99.90;;;;;;7321490;32;20099;-55
2023/05/26 09:01:22;;;;;;;30.35;7.62;;;15.60;99.90;;;;;;7322967;32;20210;-54
2023/05/26 09:05:24;;;;;;;30.35;6.97;;;15.70;99.90;;;;;;7326324;32;20205;-54
2023/05/26 09:09:26;;;;;;;26.17;6.65;;;16.20;99.90;;;;;;7319848;32;20134;-55
2023/05/26 09:13:30;;;;;;;24.05;6.22;;;16.90;99.90;;;;;;7320159;32;20150;-54
2023/05/26 09:17:35;;;;;;;27.33;5.90;;;17.30;99.90;;;;;;7330917;32;20184;-54
2023/05/26 09:21:37;;;;;;;22.00;6.18;;;17.00;99.90;;;;;;7312943;32;20278;-54
2023/05/26 09:25:41;;;;;;;27.10;6.25;;;17.40;99.90;;;;;;7324152;32;20261;-55
2023/05/26 09:30:00;;;;;;;19.62;5.37;;;16.20;99.90;;;;;;7324289;32;20138;-55
2023/05/26 09:34:02;;;;;;;27.02;6.35;;;16.50;99.90;;;;;;7324307;32;20112;-54
2023/05/26 09:38:05;;;;;;;25.37;5.70;;;17.70;99.90;;;;;;7330062;32;20221;-55
2023/05/26 09:42:08;;;;;;;26.12;6.35;;;18.60;99.90;;;;;;7325367;32;20168;-54
2023/05/26 09:46:21;;;;;;;27.52;5.93;;;17.30;99.90;;;;;;7326689;32;20238;-55
2023/05/26 09:50:24;;;;;;;25.80;6.20;;;17.00;99.90;;;;;;7326622;32;20485;-55
2023/05/26 09:54:26;;;;;;;24.05;6.18;;;17.20;99.90;;;;;;7327281;32;20832;-55
2023/05/26 09:58:30;;;;;;;27.27;6.72;;;17.40;99.90;;;;;;7329770;32;20189;-55
2023/05/26 10:02:31;;;;;;;25.58;6.65;;;17.20;99.90;;;;;;7327054;32;20108;-55
2023/05/26 10:06:37;;;;;;;20.25;5.72;;;17.30;99.90;;;;;;7323977;32;20664;-56
2023/05/26 10:10:40;;;;;;;29.20;6.80;;;17.00;99.90;;;;;;7327627;32;20110;-54
2023/05/26 10:14:42;;;;;;;25.80;6.20;;;17.40;99.90;;;;;;7333284;32;20115;-54
2023/05/26 10:18:44;;;;;;;31.70;6.78;;;16.90;99.90;;;;;;7329001;32;20866;-55
2023/05/26 10:22:48;;;;;;;21.70;6.10;;;17.30;99.90;;;;;;7322963;32;20642;-54
2023/05/26 10:27:26;;;;;;;23.87;5.97;;;17.80;99.90;;;;;;7328421;32;20222;-54
2023/05/26 10:31:29;;;;;;;23.47;6.43;;;17.70;99.90;;;;;;7326930;32;20334;-53
2023/05/26 10:35:32;;;;;;;29.55;7.18;;;17.30;99.90;;;;;;7318087;32;20115;-55
2023/05/26 10:39:34;;;;;;;23.23;5.57;;;17.00;99.90;;;;;;7324416;32;20375;-55
2023/05/26 10:43:36;;;;;;;21.10;5.85;;;17.50;99.90;;;;;;7331658;32;20111;-55
2023/05/26 10:47:46;;;;;;;25.00;6.50;;;18.20;99.90;;;;;;7324236;32;20207;-55
2023/05/26 10:51:53;;;;;;;21.02;5.30;;;17.90;99.90;;;;;;7321466;32;20233;-55
2023/05/26 10:56:02;;;;;;;23.50;5.47;;;18.40;99.90;;;;;;7332688;32;20257;-56
2023/05/26 11:00:21;;;;;;;26.08;6.43;;;19.10;99.90;;;;;;7328612;32;20210;-55
2023/05/26 11:04:42;;;;;;;20.25;5.72;;;18.00;99.90;;;;;;7332027;32;20246;-55
2023/05/26 11:08:47;;;;;;;23.92;5.78;;;18.20;99.90;;;;;;7331708;32;20336;-55
2023/05/26 11:12:54;;;;;;;22.00;6.00;;;19.20;99.90;;;;;;7329095;32;20681;-55
2023/05/26 11:16:59;;;;;;;27.48;6.35;;;19.00;99.90;;;;;;7321746;32;20157;-55
2023/05/26 11:21:02;;;;;;;22.95;5.65;;;19.60;99.90;;;;;;7331251;32;20222;-55
2023/05/26 11:25:04;;;;;;;26.95;6.43;;;19.20;99.90;;;;;;7319433;32;20281;-55
2023/05/26 11:29:07;;;;;;;24.08;5.75;;;18.40;99.90;;;;;;7326085;32;20127;-54
2023/05/26 11:33:12;;;;;;;22.83;6.00;;;18.70;99.90;;;;;;7335048;32;20111;-55
2023/05/26 11:37:14;;;;;;;22.33;6.12;;;18.70;99.90;;;;;;7329276;32;20198;-55
2023/05/26 11:41:16;;;;;;;26.80;6.60;;;18.60;99.90;;;;;;7326703;32;20186;-55
2023/05/26 11:45:18;;;;;;;30.40;6.25;;;18.80;99.90;;;;;;7328091;32;20112;-55
2023/05/26 11:49:20;;;;;;;24.80;6.70;;;18.70;99.90;;;;;;7330972;32;20841;-55
2023/05/26 11:53:22;;;;;;;23.10;6.05;;;18.10;99.90;;;;;;7329805;32;20139;-55
2023/05/26 11:57:25;;;;;;;27.08;6.25;;;18.30;99.90;;;;;;7331648;32;20636;-55
2023/05/26 12:01:28;;;;;;;24.48;5.95;;;19.20;99.90;;;;;;7332375;32;20532;-54
2023/05/26 12:05:30;;;;;;;22.35;5.20;;;20.00;99.90;;;;;;7325004;32;20137;-53
2023/05/26 12:09:32;;;;;;;25.00;5.85;;;19.90;99.90;;;;;;7315879;32;20538;-53
2023/05/26 12:13:38;;;;;;;27.98;6.05;;;19.70;99.90;;;;;;7325491;32;20111;-54
2023/05/26 12:17:41;;;;;;;23.73;7.33;;;21.40;99.90;;;;;;7322584;32;20574;-55
2023/05/26 12:21:51;;;;;;;16.92;5.03;;;21.90;99.40;;;;;;7332928;32;20205;-56
2023/05/26 12:25:53;;;;;;;19.15;5.40;;;22.20;96.10;;;;;;7337170;32;20104;-55
2023/05/26 12:29:55;;;;;;;20.42;6.05;;;22.10;96.60;;;;;;7328580;32;20242;-56
2023/05/26 12:33:57;;;;;;;22.05;5.72;;;21.50;97.30;;;;;;7318585;32;20108;-54
2023/05/26 12:37:59;;;;;;;15.88;4.80;;;21.30;94.80;;;;;;7324221;32;20104;-55
2023/05/26 12:42:01;;;;;;;21.60;5.28;;;22.60;94.80;;;;;;7327993;32;20214;-55
2023/05/26 12:46:04;;;;;;;20.17;4.85;;;22.30;92.70;;;;;;7327548;32;20201;-56
2023/05/26 12:50:06;;;;;;;19.37;5.22;;;22.30;92.30;;;;;;7321828;32;20180;-55
2023/05/26 12:54:09;;;;;;;18.52;4.78;;;23.40;90.40;;;;;;7329326;32;20191;-55
2023/05/26 12:58:11;;;;;;;14.13;4.50;;;23.10;89.60;;;;;;7333137;32;20131;-56
2023/05/26 13:02:13;;;;;;;21.90;5.85;;;23.80;86.80;;;;;;7331585;32;20570;-56
2023/05/26 13:06:15;;;;;;;16.73;4.22;;;22.10;80.60;;;;;;7325986;32;20143;-56
2023/05/26 13:10:17;;;;;;;16.50;4.05;;;21.70;87.20;;;;;;7328414;32;20209;-56
2023/05/26 13:14:19;;;;;;;16.67;4.68;;;20.90;87.40;;;;;;7315344;32;20155;-56
2023/05/26 13:18:21;;;;;;;14.68;4.30;;;20.60;88.10;;;;;;7311869;32;20139;-57
2023/05/26 13:22:23;;;;;;;20.05;4.37;;;20.70;82.90;;;;;;7329209;32;20172;-57
2023/05/26 13:26:25;;;;;;;14.82;3.65;;;21.50;86.50;;;;;;7323466;32;20282;-57
2023/05/26 13:30:27;;;;;;;15.80;3.58;;;21.40;80.70;;;;;;7324272;32;20212;-56
2023/05/26 13:34:29;;;;;;;13.48;4.05;;;21.00;87.10;;;;;;7332454;32;20596;-56
2023/05/26 13:38:31;;;;;;;15.18;3.78;;;21.10;82.00;;;;;;7326454;32;20149;-56
2023/05/26 13:42:34;;;;;;;16.73;4.28;;;21.30;83.00;;;;;;7333546;32;20299;-56
2023/05/26 13:46:38;;;;;;;12.05;3.65;;;21.10;80.60;;;;;;7324014;32;20199;-56
2023/05/26 13:50:40;;;;;;;13.75;3.72;;;21.20;75.80;;;;;;7327342;32;20131;-57
2023/05/26 13:54:42;;;;;;;13.25;3.45;;;21.40;76.70;;;;;;7325819;32;20107;-56
2023/05/26 13:58:44;;;;;;;17.55;3.90;;;20.40;76.40;;;;;;7333957;32;20130;-55
2023/05/26 14:02:47;;;;;;;10.88;3.37;;;20.10;76.90;;;;;;7324213;32;20619;-58
2023/05/26 14:06:48;;;;;;;12.98;3.60;;;20.10;74.50;;;;;;7327095;32;20278;-55
2023/05/26 14:10:51;;;;;;;18.58;4.12;;;20.00;74.90;;;;;;7326825;32;20195;-55
2023/05/26 14:14:54;;;;;;;14.10;3.97;;;19.90;77.40;;;;;;7322463;32;20535;-55
2023/05/26 14:18:56;;;;;;;16.05;3.20;;;20.30;70.80;;;;;;7329996;32;20569;-56
2023/05/26 14:23:13;;;;;;;10.45;3.50;;;20.90;74.80;;;;;;7330411;32;20233;-56
2023/05/26 14:27:15;;;;;;;15.88;3.65;;;22.10;69.40;;;;;;7335186;32;20201;-56
2023/05/26 14:31:17;;;;;;;11.35;3.30;;;22.00;65.10;;;;;;7323880;32;20198;-55
2023/05/26 14:35:19;;;;;;;11.68;3.30;;;21.40;67.60;;;;;;7331755;32;20865;-56
2023/05/26 14:39:20;;;;;;;11.02;3.30;;;21.50;65.60;;;;;;7326339;32;20116;-55
2023/05/26 14:43:24;;;;;;;14.90;3.37;;;21.80;65.10;;;;;;7323889;32;20218;-57
2023/05/26 14:47:26;;;;;;;12.55;3.70;;;22.00;65.00;;;;;;7318198;32;20182;-56
2023/05/26 14:51:28;;;;;;;15.70;3.58;;;22.00;63.70;;;;;;7319532;32;20123;-56
2023/05/26 14:55:29;;;;;;;14.57;3.58;;;23.00;63.60;;;;;;7320937;32;20561;-55
2023/05/26 14:59:31;;;;;;;11.00;3.55;;;22.80;62.50;;;;;;7309194;32;20740;-56
2023/05/26 15:03:33;;;;;;;13.20;3.83;;;22.30;59.80;;;;;;7315404;32;20151;-55
2023/05/26 15:07:43;;;;;;;13.35;3.37;;;20.70;61.20;;;;;;7314834;32;22339;-55
2023/05/26 15:11:44;;;;;;;13.38;3.17;;;20.10;65.00;;;;;;7321902;32;20236;-56
2023/05/26 15:15:46;;;;;;;11.55;3.62;;;20.70;65.30;;;;;;7318151;32;21055;-55
2023/05/26 15:19:48;;;;;;;12.37;3.80;;;20.10;70.50;;;;;;7321834;32;20352;-55
2023/05/26 15:23:50;;;;;;;10.50;3.65;;;19.20;69.30;;;;;;7321318;32;20126;-56
2023/05/26 15:27:53;;;;;;;13.48;3.50;;;19.40;73.30;;;;;;7318857;32;20512;-55
2023/05/26 15:31:54;;;;;;;12.73;3.90;;;19.20;70.80;;;;;;7320930;32;20619;-55
2023/05/26 15:35:57;;;;;;;18.20;4.18;;;19.10;73.50;;;;;;7318858;32;20120;-56
2023/05/26 15:39:58;;;;;;;11.52;3.15;;;18.60;71.00;;;;;;7322341;32;20124;-55
2023/05/26 15:44:02;;;;;;;13.02;3.90;;;18.40;74.50;;;;;;7323372;32;20135;-55
2023/05/26 15:48:05;;;;;;;13.55;3.25;;;18.50;75.00;;;;;;7325667;32;20238;-55
2023/05/26 15:52:06;;;;;;;15.45;3.90;;;18.50;74.40;;;;;;7324357;32;20242;-56
2023/05/26 15:56:11;;;;;;;15.93;4.32;;;18.20;75.30;;;;;;7309270;32;20167;-55
2023/05/26 16:00:16;;;;;;;15.93;3.75;;;18.30;75.10;;;;;;7324383;32;20103;-56
2023/05/26 16:04:17;;;;;;;13.82;3.60;;;18.40;76.40;;;;;;7323508;32;20233;-56
2023/05/26 16:08:19;;;;;;;15.48;3.60;;;18.20;75.50;;;;;;7322902;32;20133;-56
2023/05/26 16:12:21;;;;;;;13.82;3.78;;;18.20;77.40;;;;;;7323104;32;20198;-57
2023/05/26 16:16:23;;;;;;;16.50;3.40;;;18.20;77.60;;;;;;7322042;32;20803;-56
2023/05/26 16:20:25;;;;;;;15.45;4.03;;;18.40;77.90;;;;;;7311677;32;20690;-56
2023/05/26 16:24:28;;;;;;;11.02;3.20;;;18.40;75.00;;;;;;7319467;32;20521;-56
2023/05/26 16:28:30;;;;;;;13.32;3.17;;;18.40;75.30;;;;;;7328181;32;20490;-56
2023/05/26 16:32:32;;;;;;;14.05;2.97;;;18.40;75.80;;;;;;7324598;32;20506;-56
2023/05/26 16:36:34;;;;;;;12.77;3.25;;;18.20;76.40;;;;;;7320572;32;20498;-56
2023/05/26 16:40:36;;;;;;;12.45;3.10;;;18.20;74.50;;;;;;7331830;32;20153;-56
2023/05/26 16:44:37;;;;;;;13.05;3.00;;;18.00;75.20;;;;;;7332696;32;20107;-56
2023/05/26 16:48:39;;;;;;;13.68;2.85;;;17.90;72.80;;;;;;7333392;32;20131;-55
2023/05/26 16:52:41;;;;;;;15.25;3.25;;;17.80;72.50;;;;;;7322219;32;20580;-56
2023/05/26 16:56:43;;;;;;;12.20;3.17;;;17.80;75.20;;;;;;7324143;32;20140;-56
2023/05/26 17:00:44;;;;;;;9.98;3.12;;;17.80;75.30;;;;;;7334689;32;20202;-57
2023/05/26 17:04:46;;;;;;;14.27;3.28;;;17.70;75.80;;;;;;7322046;32;20186;-56
2023/05/26 17:08:48;;;;;;;9.80;2.90;;;17.70;77.00;;;;;;7330115;32;20215;-56
2023/05/26 17:12:50;;;;;;;15.57;3.00;;;17.60;79.90;;;;;;7324783;32;20243;-56
2023/05/26 17:16:52;;;;;;;12.80;3.10;;;17.50;80.10;;;;;;7330805;32;20150;-57
2023/05/26 17:20:54;;;;;;;14.55;3.80;;;17.30;81.60;;;;;;7339078;32;20184;-55
2023/05/26 17:24:55;;;;;;;13.57;3.20;;;17.30;80.50;;;;;;7334288;32;20253;-57
2023/05/26 17:28:57;;;;;;;14.95;3.65;;;17.20;83.10;;;;;;7322972;32;20111;-56
2023/05/26 17:32:59;;;;;;;15.20;3.55;;;17.10;85.40;;;;;;7332885;32;20210;-55
2023/05/26 17:37:02;;;;;;;16.12;3.65;;;17.10;86.60;;;;;;7316555;32;20454;-57
2023/05/26 17:41:05;;;;;;;12.37;3.45;;;17.10;89.20;;;;;;7331728;32;20122;-56
2023/05/26 17:45:08;;;;;;;10.68;2.92;;;17.10;90.30;;;;;;7321226;32;20920;-56
2023/05/26 17:49:10;;;;;;;19.98;3.75;;;17.10;90.40;;;;;;7327103;32;20937;-56
2023/05/26 17:53:11;;;;;;;9.90;3.28;;;17.00;90.50;;;;;;7324539;32;20179;-56
2023/05/26 17:57:13;;;;;;;10.65;2.70;;;17.00;91.60;;;;;;7328054;32;20713;-56
2023/05/26 18:01:15;;;;;;;12.75;3.17;;;16.90;92.80;;;;;;7328659;32;20643;-56
2023/05/26 18:05:17;;;;;;;10.52;2.72;;;16.90;91.30;;;;;;7331781;32;20248;-56
2023/05/26 18:09:19;;;;;;;18.52;3.40;;;16.90;91.30;;;;;;7327988;32;20391;-55
2023/05/26 18:13:21;;;;;;;14.57;3.08;;;16.80;92.00;;;;;;7322895;32;20128;-56
2023/05/26 18:17:23;;;;;;;14.35;2.90;;;16.70;92.10;;;;;;7310452;32;20150;-56
2023/05/26 18:21:25;;;;;;;16.00;2.62;;;16.70;91.90;;;;;;7326951;32;20289;-55
2023/05/26 18:25:31;;;;;;;14.23;2.90;;;16.50;91.90;;;;;;7323054;32;20104;-55
2023/05/26 18:29:33;;;;;;;12.43;2.60;;;16.40;91.90;;;;;;7328996;32;20112;-55
2023/05/26 18:33:36;;;;;;;15.95;2.75;;;16.30;91.70;;;;;;7328024;32;20629;-55
2023/05/26 18:37:37;;;;;;;14.43;2.78;;;16.20;92.30;;;;;;7324254;32;20200;-55
2023/05/26 18:41:39;;;;;;;11.55;2.30;;;16.20;91.90;;;;;;7326938;32;20421;-56
2023/05/26 18:45:41;;;;;;;14.15;2.83;;;15.90;92.80;;;;;;7328022;32;20135;-54
2023/05/26 18:49:43;;;;;;;15.55;3.00;;;15.80;93.70;;;;;;7323431;32;20574;-55
2023/05/26 18:53:45;;;;;;;12.80;3.12;;;15.70;94.90;;;;;;7322234;32;20666;-55
2023/05/26 18:57:46;;;;;;;11.77;2.75;;;15.60;96.40;;;;;;7328956;32;20297;-54
2023/05/26 19:01:48;;;;;;;11.65;2.67;;;15.50;96.00;;;;;;7323151;32;20099;-53
2023/05/26 19:05:51;;;;;;;12.70;3.10;;;15.30;97.60;;;;;;7312818;32;20320;-54
2023/05/26 19:09:53;;;;;;;16.73;3.53;;;15.20;99.30;;;;;;7328074;32;20138;-54
2023/05/26 19:13:54;;;;;;;12.10;2.92;;;15.20;99.60;;;;;;7327094;32;20760;-55
2023/05/26 19:17:56;;;;;;;15.85;3.25;;;15.00;99.90;;;;;;7328773;32;20128;-54
2023/05/26 19:21:58;;;;;;;11.60;2.50;;;14.90;99.90;;;;;;7330008;32;20781;-53
2023/05/26 19:26:00;;;;;;;11.68;2.58;;;14.80;99.90;;;;;;7324651;32;20233;-54
2023/05/26 19:30:02;;;;;;;10.80;2.50;;;14.70;99.90;;;;;;7329832;32;20111;-54
2023/05/26 19:34:04;;;;;;;13.45;3.35;;;14.50;99.90;;;;;;7326133;32;20239;-54
2023/05/26 19:38:06;;;;;;;10.73;2.62;;;14.30;99.90;;;;;;7323041;32;20795;-55
2023/05/26 19:42:07;;;;;;;11.90;2.83;;;14.20;99.90;;;;;;7327580;32;20111;-54
2023/05/26 19:46:09;;;;;;;14.13;3.20;;;14.10;99.90;;;;;;7320457;32;20119;-52
2023/05/26 19:50:11;;;;;;;12.52;2.90;;;13.90;99.90;;;;;;7327175;32;20131;-53
2023/05/26 19:54:13;;;;;;;11.02;3.03;;;13.80;99.90;;;;;;7313398;32;20202;-53
2023/05/26 19:58:15;;;;;;;13.02;2.67;;;13.60;99.90;;;;;;7326731;32;20206;-53
2023/05/26 20:02:17;;;;;;;12.90;3.30;;;13.50;99.90;;;;;;7312606;32;20192;-53
2023/05/26 20:06:19;;;;;;;11.23;2.80;;;13.30;99.90;;;;;;7324840;32;20784;-53
2023/05/26 20:10:21;;;;;;;10.45;2.62;;;13.20;99.90;;;;;;7318446;32;20131;-53
2023/05/26 20:14:23;;;;;;;11.55;2.83;;;13.10;99.90;;;;;;7329810;32;20134;-54
2023/05/26 20:18:25;;;;;;;13.32;2.78;;;13.00;99.90;;;;;;7321319;32;20111;-53
2023/05/26 20:22:27;;;;;;;10.45;3.08;;;12.90;99.90;;;;;;7328077;32;20237;-53
2023/05/26 20:26:29;;;;;;;10.20;3.22;;;12.70;99.90;;;;;;7326156;32;20134;-53
2023/05/26 20:30:31;;;;;;;11.27;2.95;;;12.50;99.90;;;;;;7320779;32;20119;-54
2023/05/26 20:34:33;;;;;;;11.57;3.42;;;12.40;99.90;;;;;;7330854;32;20174;-55
2023/05/26 20:38:36;;;;;;;14.13;3.45;;;12.30;99.90;;;;;;7322991;32;20190;-54
2023/05/26 20:42:37;;;;;;;12.70;3.30;;;12.10;99.90;;;;;;7322793;32;20130;-54
2023/05/26 20:46:39;;;;;;;10.98;3.28;;;12.00;99.90;;;;;;7328576;32;20116;-54
2023/05/26 20:50:41;;;;;;;12.85;3.37;;;12.00;99.90;;;;;;7334912;32;20391;-53